createdAt,value
2022-08-03T00:00:42.416Z,2.80
2022-08-03T00:03:11.512Z,3.10
2022-08-03T00:05:40.444Z,3.10
2022-08-03T00:08:30.824Z,2.97
2022-08-03T00:11:00.722Z,2.80
2022-08-03T00:13:29.598Z,3.63
2022-08-03T00:15:58.518Z,3.40
2022-08-03T00:18:27.434Z,3.40
2022-08-03T00:20:56.333Z,3.55
2022-08-03T00:23:25.206Z,3.58
2022-08-03T00:25:55.520Z,3.63
2022-08-03T00:28:24.789Z,3.42
2022-08-03T00:30:56.875Z,3.42
2022-08-03T00:33:25.731Z,2.92
2022-08-03T00:35:56.976Z,3.50
2022-08-03T00:38:25.840Z,4.05
2022-08-03T00:40:56.547Z,3.25
2022-08-03T00:43:27.941Z,3.70
2022-08-03T00:45:57.205Z,4.35
2022-08-03T00:48:33.785Z,4.30
2022-08-03T00:51:03.192Z,4.30
2022-08-03T00:53:32.776Z,3.90
2022-08-03T00:56:03.256Z,4.55
2022-08-03T00:58:32.211Z,3.88
2022-08-03T01:01:01.113Z,4.10
2022-08-03T01:03:30.060Z,4.22
2022-08-03T01:06:08.144Z,3.88
2022-08-03T01:08:45.133Z,3.95
2022-08-03T01:11:21.845Z,3.45
2022-08-03T01:14:04.010Z,3.45
2022-08-03T01:16:57.393Z,3.97
2022-08-03T01:19:40.623Z,3.88
2022-08-03T01:22:24.833Z,3.83
2022-08-03T01:25:04.254Z,3.78
2022-08-03T01:27:50.588Z,3.53
2022-08-03T01:30:21.212Z,3.35
2022-08-03T01:33:01.421Z,3.55
2022-08-03T01:35:38.951Z,4.10
2022-08-03T01:38:13.018Z,3.97
2022-08-03T01:40:44.575Z,3.50
2022-08-03T01:43:59.016Z,3.72
2022-08-03T01:46:09.938Z,3.55
2022-08-03T01:48:41.020Z,3.70
2022-08-03T01:51:11.878Z,3.45
2022-08-03T01:53:43.509Z,4.18
2022-08-03T01:56:13.533Z,4.47
2022-08-03T01:58:43.303Z,3.83
2022-08-03T02:01:14.883Z,4.38
2022-08-03T02:03:59.725Z,3.90
2022-08-03T02:07:01.651Z,4.25
2022-08-03T02:09:24.387Z,4.32
2022-08-03T02:11:54.658Z,4.80
2022-08-03T02:14:25.030Z,4.60
2022-08-03T02:16:56.560Z,4.30
2022-08-03T02:19:27.161Z,3.90
2022-08-03T02:22:01.108Z,4.80
2022-08-03T02:24:32.017Z,4.10
2022-08-03T02:27:02.399Z,4.60
2022-08-03T02:29:39.515Z,4.40
2022-08-03T02:32:18.495Z,4.32
2022-08-03T02:34:50.440Z,4.53
2022-08-03T02:37:21.871Z,4.20
2022-08-03T02:39:53.597Z,4.63
2022-08-03T02:42:25.863Z,4.30
2022-08-03T02:44:58.348Z,4.50
2022-08-03T02:47:53.545Z,4.82
2022-08-03T02:50:21.194Z,4.03
2022-08-03T02:52:52.361Z,4.55
2022-08-03T02:55:23.007Z,5.03
2022-08-03T02:57:53.243Z,5.00
2022-08-03T03:00:27.695Z,5.13
2022-08-03T03:03:01.100Z,5.05
2022-08-03T03:05:55.305Z,3.90
2022-08-03T03:08:26.853Z,4.60
2022-08-03T03:11:00.195Z,4.25
2022-08-03T03:13:31.450Z,4.32
2022-08-03T03:16:03.453Z,4.78
2022-08-03T03:18:35.377Z,4.45
2022-08-03T03:21:05.977Z,5.05
2022-08-03T03:23:37.698Z,5.13
2022-08-03T03:26:07.363Z,6.00
2022-08-03T03:28:38.215Z,5.22
2022-08-03T03:31:07.565Z,5.72
2022-08-03T03:33:39.104Z,6.53
2022-08-03T03:36:08.973Z,70.90
2022-08-03T03:38:38.082Z,57.53
2022-08-03T03:41:07.196Z,14.25
2022-08-03T03:43:36.180Z,5.50
2022-08-03T03:46:05.149Z,4.95
2022-08-03T03:48:35.038Z,4.63
2022-08-03T03:51:05.506Z,5.18
2022-08-03T03:53:34.409Z,5.25
2022-08-03T03:56:03.406Z,6.20
2022-08-03T03:58:34.202Z,7.88
2022-08-03T04:01:03.132Z,6.28
2022-08-03T04:03:32.037Z,5.72
2022-08-03T04:06:18.380Z,5.68
2022-08-03T04:09:06.023Z,6.00
2022-08-03T04:11:39.543Z,5.88
2022-08-03T04:14:15.742Z,6.68
2022-08-03T04:16:49.775Z,6.15
2022-08-03T04:19:24.870Z,5.88
2022-08-03T04:21:58.790Z,6.38
2022-08-03T04:24:34.527Z,6.35
2022-08-03T04:27:07.701Z,7.68
2022-08-03T04:29:44.757Z,7.72
2022-08-03T04:32:18.486Z,8.57
2022-08-03T04:34:48.189Z,7.93
2022-08-03T04:37:27.670Z,7.68
2022-08-03T04:40:00.861Z,7.28
2022-08-03T04:42:31.076Z,7.25
2022-08-03T04:45:01.692Z,6.93
2022-08-03T04:47:33.551Z,6.60
2022-08-03T04:50:03.551Z,6.63
2022-08-03T04:52:32.613Z,6.97
2022-08-03T04:55:02.984Z,6.15
2022-08-03T04:57:32.009Z,6.05
2022-08-03T05:00:03.393Z,6.40
2022-08-03T05:02:35.155Z,7.10
2022-08-03T05:05:04.034Z,6.72
2022-08-03T05:07:36.436Z,6.75
2022-08-03T05:10:14.952Z,6.65
2022-08-03T05:12:46.764Z,5.82
2022-08-03T05:15:16.499Z,6.50
2022-08-03T05:17:45.371Z,6.18
2022-08-03T05:20:16.595Z,5.90
2022-08-03T05:22:47.880Z,5.20
2022-08-03T05:25:20.617Z,5.07
2022-08-03T05:27:51.270Z,5.30
2022-08-03T05:30:31.131Z,4.97
2022-08-03T05:33:04.471Z,5.70
2022-08-03T05:35:57.624Z,5.30
2022-08-03T05:38:28.685Z,4.65
2022-08-03T05:41:22.365Z,4.35
2022-08-03T05:43:53.882Z,5.25
2022-08-03T05:46:23.862Z,4.60
2022-08-03T05:48:52.757Z,5.22
2022-08-03T05:51:21.826Z,5.07
2022-08-03T05:53:50.855Z,4.30
2022-08-03T05:56:23.708Z,5.32
2022-08-03T05:58:52.994Z,4.53
2022-08-03T06:01:23.035Z,3.88
2022-08-03T06:03:52.460Z,3.75
2022-08-03T06:06:21.336Z,3.53
2022-08-03T06:08:50.287Z,4.10
2022-08-03T06:11:20.698Z,3.22
2022-08-03T06:13:49.601Z,3.30
2022-08-03T06:16:18.528Z,2.92
2022-08-03T06:18:47.381Z,2.63
2022-08-03T06:21:16.995Z,3.42
2022-08-03T06:23:54.517Z,3.22
2022-08-03T06:26:27.925Z,3.45
2022-08-03T06:28:57.279Z,3.13
2022-08-03T06:31:33.066Z,3.10
2022-08-03T06:34:32.543Z,3.03
2022-08-03T06:36:53.324Z,2.75
2022-08-03T06:39:23.345Z,3.03
2022-08-03T06:41:54.802Z,2.92
2022-08-03T06:44:24.663Z,2.92
2022-08-03T06:46:53.590Z,3.42
2022-08-03T06:49:22.564Z,3.47
2022-08-03T06:52:03.899Z,3.78
2022-08-03T06:54:36.915Z,3.42
2022-08-03T06:57:09.823Z,3.53
2022-08-03T07:00:08.447Z,3.55
2022-08-03T07:02:28.524Z,3.53
2022-08-03T07:04:58.201Z,3.80
2022-08-03T07:07:27.165Z,3.67
2022-08-03T07:09:57.856Z,3.40
2022-08-03T07:12:30.142Z,3.45
2022-08-03T07:15:02.251Z,3.08
2022-08-03T07:17:34.893Z,3.13
2022-08-03T07:20:06.216Z,2.80
2022-08-03T07:22:35.309Z,3.22
2022-08-03T07:25:05.054Z,3.60
2022-08-03T07:27:36.065Z,2.80
2022-08-03T07:30:07.927Z,2.67
2022-08-03T07:32:37.130Z,9.52
2022-08-03T07:35:24.775Z,2.63
2022-08-03T07:37:55.254Z,2.78
2022-08-03T07:40:26.969Z,2.50
2022-08-03T07:43:03.368Z,2.55
2022-08-03T07:45:32.857Z,2.63
2022-08-03T07:48:01.731Z,2.45
2022-08-03T07:50:30.621Z,2.13
2022-08-03T07:52:59.896Z,2.17
2022-08-03T07:55:30.337Z,2.30
2022-08-03T07:58:06.115Z,2.25
2022-08-03T08:00:35.184Z,2.45
2022-08-03T08:03:04.188Z,2.10
2022-08-03T08:05:33.340Z,2.38
2022-08-03T08:08:02.816Z,2.30
2022-08-03T08:10:32.755Z,2.15
2022-08-03T08:13:02.025Z,2.20
2022-08-03T08:15:33.071Z,2.10
2022-08-03T08:18:03.549Z,2.00
2022-08-03T08:20:37.989Z,2.20
2022-08-03T08:23:12.154Z,2.88
2022-08-03T08:25:57.580Z,2.10
2022-08-03T08:28:30.573Z,2.50
2022-08-03T08:31:03.490Z,2.30
2022-08-03T08:34:01.417Z,2.45
2022-08-03T08:36:24.080Z,2.38
2022-08-03T08:38:52.984Z,2.40
2022-08-03T08:41:22.108Z,2.38
2022-08-03T08:43:51.486Z,2.88
2022-08-03T08:46:23.298Z,2.53
2022-08-03T08:48:54.396Z,2.55
2022-08-03T08:51:54.465Z,2.50
2022-08-03T08:54:21.136Z,2.60
2022-08-03T08:56:51.538Z,3.00
2022-08-03T08:59:21.408Z,2.88
2022-08-03T09:01:51.739Z,2.63
2022-08-03T09:04:20.761Z,2.65
2022-08-03T09:07:10.485Z,2.90
2022-08-03T09:10:12.312Z,2.45
2022-08-03T09:12:43.170Z,2.72
2022-08-03T09:15:24.061Z,2.63
2022-08-03T09:17:56.726Z,2.92
2022-08-03T09:20:27.127Z,2.90
2022-08-03T09:22:58.929Z,2.50
2022-08-03T09:25:29.778Z,2.75
2022-08-03T09:28:07.061Z,2.30
2022-08-03T09:30:36.788Z,2.47
2022-08-03T09:33:08.727Z,3.35
2022-08-03T09:35:58.214Z,3.47
2022-08-03T09:38:27.636Z,2.22
2022-08-03T09:41:00.244Z,2.33
2022-08-03T09:43:30.073Z,2.53
2022-08-03T09:46:07.405Z,3.20
2022-08-03T09:48:37.849Z,2.58
2022-08-03T09:51:12.779Z,2.38
2022-08-03T09:53:58.540Z,2.50
2022-08-03T09:56:40.808Z,2.13
2022-08-03T09:59:10.778Z,1.98
2022-08-03T10:01:42.018Z,2.17
2022-08-03T10:04:16.971Z,2.20
2022-08-03T10:06:47.087Z,2.47
2022-08-03T10:09:17.663Z,2.15
2022-08-03T10:11:47.625Z,1.92
2022-08-03T10:14:19.980Z,2.30
2022-08-03T10:16:49.781Z,2.20
2022-08-03T10:19:19.968Z,2.28
2022-08-03T10:21:54.618Z,2.05
2022-08-03T10:24:27.383Z,2.10
2022-08-03T10:27:03.384Z,2.10
2022-08-03T10:29:38.779Z,1.92
2022-08-03T10:32:17.043Z,1.95
2022-08-03T10:34:51.060Z,2.10
2022-08-03T10:37:33.485Z,2.08
2022-08-03T10:40:03.651Z,1.92
2022-08-03T10:42:33.033Z,1.90
2022-08-03T10:45:06.660Z,1.92
2022-08-03T10:47:36.821Z,1.90
2022-08-03T10:50:08.905Z,2.10
2022-08-03T10:52:54.493Z,1.88
2022-08-03T10:58:57.159Z,1.80
2022-08-03T11:01:59.225Z,2.28
2022-08-03T11:04:30.834Z,1.70
2022-08-03T11:07:23.057Z,1.88
2022-08-03T11:09:54.650Z,1.92
2022-08-03T11:12:30.116Z,2.47
2022-08-03T11:15:02.005Z,1.90
2022-08-03T11:17:31.082Z,2.05
2022-08-03T11:19:59.962Z,2.25
2022-08-03T11:22:50.919Z,1.80
2022-08-03T11:25:54.116Z,1.90
2022-08-03T11:28:27.683Z,2.00
2022-08-03T11:30:57.194Z,2.00
2022-08-03T11:33:32.964Z,1.80
2022-08-03T11:36:03.279Z,1.80
2022-08-03T11:38:33.664Z,1.60
2022-08-03T11:41:02.760Z,1.95
2022-08-03T11:43:47.584Z,2.05
2022-08-03T11:46:29.754Z,1.80
2022-08-03T11:49:10.375Z,1.90
2022-08-03T11:51:40.580Z,2.13
2022-08-03T11:54:11.522Z,2.13
2022-08-03T11:56:48.289Z,1.92
2022-08-03T11:59:22.033Z,1.85
2022-08-03T12:01:51.966Z,2.05
2022-08-03T12:04:20.850Z,2.00
2022-08-03T12:07:02.289Z,2.20
2022-08-03T12:09:34.516Z,2.10
2022-08-03T12:12:04.823Z,1.98
2022-08-03T12:14:48.824Z,1.55
2022-08-03T12:17:20.844Z,1.85
2022-08-03T12:19:49.919Z,1.95
2022-08-03T12:22:32.633Z,1.95
2022-08-03T12:25:02.957Z,1.77
2022-08-03T12:27:31.953Z,2.20
2022-08-03T12:30:02.044Z,2.30
2022-08-03T12:32:31.525Z,1.92
2022-08-03T12:35:01.494Z,2.60
2022-08-03T12:37:31.662Z,2.58
2022-08-03T12:40:10.162Z,2.90
2022-08-03T12:42:41.104Z,2.97
2022-08-03T12:45:19.824Z,3.30
2022-08-03T12:47:56.085Z,3.40
2022-08-03T12:50:29.436Z,2.90
2022-08-03T12:52:59.243Z,2.50
2022-08-03T12:55:40.186Z,2.50
2022-08-03T12:58:35.053Z,3.20
2022-08-03T13:01:09.604Z,3.00
2022-08-03T13:03:46.002Z,2.97
2022-08-03T13:06:21.300Z,3.10
2022-08-03T13:08:51.591Z,2.40
2022-08-03T13:11:55.386Z,2.03
2022-08-03T13:14:19.491Z,2.40
2022-08-03T13:16:49.798Z,2.15
2022-08-03T13:19:18.762Z,2.08
2022-08-03T13:21:53.714Z,2.03
2022-08-03T13:24:34.144Z,1.80
2022-08-03T13:28:01.403Z,1.75
2022-08-03T13:29:55.751Z,1.73
2022-08-03T13:32:25.068Z,1.70
2022-08-03T13:34:54.023Z,1.70
2022-08-03T13:37:23.311Z,1.67
2022-08-03T13:39:59.147Z,1.70
2022-08-03T13:42:32.357Z,1.70
2022-08-03T13:45:02.464Z,1.83
2022-08-03T13:47:31.384Z,1.83
2022-08-03T13:50:04.232Z,1.80
2022-08-03T13:52:34.677Z,1.60
2022-08-03T13:55:05.310Z,1.70
2022-08-03T13:58:04.187Z,1.60
2022-08-03T14:00:28.921Z,1.90
2022-08-03T14:03:06.622Z,1.95
2022-08-03T14:05:39.341Z,1.80
2022-08-03T14:08:08.670Z,2.10
2022-08-03T14:10:40.779Z,1.90
2022-08-03T14:13:12.862Z,1.98
2022-08-03T14:15:50.985Z,2.20
2022-08-03T14:18:28.691Z,2.47
2022-08-03T14:21:07.373Z,2.17
2022-08-03T14:23:37.862Z,2.03
2022-08-03T14:26:08.474Z,2.15
2022-08-03T14:28:38.951Z,2.47
2022-08-03T14:31:15.337Z,1.60
2022-08-03T14:33:57.506Z,2.10
2022-08-03T14:36:26.725Z,1.77
2022-08-03T14:39:00.758Z,1.55
2022-08-03T14:41:30.210Z,2.03
2022-08-03T14:44:01.563Z,1.75
2022-08-03T14:46:32.279Z,1.90
2022-08-03T14:50:29.093Z,2.60
2022-08-03T14:51:51.371Z,2.00
2022-08-03T14:54:23.596Z,1.80
2022-08-03T14:56:52.969Z,1.95
2022-08-03T14:59:23.258Z,2.10
2022-08-03T15:02:05.331Z,2.10
2022-08-03T15:07:06.525Z,2.33
2022-08-03T15:09:35.761Z,2.30
2022-08-03T15:12:05.640Z,1.85
2022-08-03T15:14:35.996Z,2.03
2022-08-03T15:17:07.397Z,2.00
2022-08-03T15:20:01.366Z,1.83
2022-08-03T15:22:34.536Z,1.88
2022-08-03T15:26:29.291Z,2.00
2022-08-03T15:28:04.167Z,2.90
2022-08-03T15:30:37.027Z,2.13
2022-08-03T15:33:06.779Z,1.60
2022-08-03T15:35:35.618Z,3.53
2022-08-03T15:38:08.997Z,2.38
2022-08-03T15:40:38.658Z,2.38
2022-08-03T15:43:07.645Z,1.98
2022-08-03T15:45:38.530Z,2.10
2022-08-03T15:48:08.772Z,2.10
2022-08-03T15:50:37.595Z,3.00
2022-08-03T15:53:06.728Z,2.05
2022-08-03T15:55:35.628Z,2.38
2022-08-03T15:59:09.239Z,2.38
2022-08-03T16:00:54.917Z,1.95
2022-08-03T16:03:23.876Z,2.15
2022-08-03T16:05:52.924Z,2.22
2022-08-03T16:08:21.974Z,2.20
2022-08-03T16:10:50.814Z,1.90
2022-08-03T16:13:20.873Z,1.90
2022-08-03T16:15:50.380Z,2.05
2022-08-03T16:18:21.223Z,2.50
2022-08-03T16:20:50.153Z,2.45
2022-08-03T16:23:20.090Z,2.13
2022-08-03T16:25:49.520Z,2.13
2022-08-03T16:28:19.255Z,1.58
2022-08-03T16:30:48.726Z,1.80
2022-08-03T16:33:18.119Z,1.80
2022-08-03T16:35:49.704Z,1.88
2022-08-03T16:38:19.516Z,2.05
2022-08-03T16:40:51.993Z,2.17
2022-08-03T16:43:23.348Z,2.00
2022-08-03T16:45:52.883Z,2.15
2022-08-03T16:48:21.997Z,2.30
2022-08-03T16:50:52.363Z,2.70
2022-08-03T16:54:08.240Z,3.20
2022-08-03T16:56:11.283Z,2.70
2022-08-03T16:58:42.260Z,3.72
2022-08-03T17:01:22.312Z,3.53
2022-08-03T17:04:02.534Z,3.97
2022-08-03T17:06:36.371Z,3.83
2022-08-03T17:09:09.266Z,3.45
2022-08-03T17:11:46.621Z,3.63
2022-08-03T17:14:22.026Z,3.53
2022-08-03T17:16:54.253Z,3.85
2022-08-03T17:19:25.343Z,3.55
2022-08-03T17:22:04.012Z,3.33
2022-08-03T17:24:35.387Z,4.07
2022-08-03T17:28:41.765Z,3.38
2022-08-03T17:30:04.187Z,3.88
2022-08-03T17:32:42.350Z,3.50
2022-08-03T17:35:12.388Z,3.20
2022-08-03T17:37:57.763Z,3.60
2022-08-03T17:40:32.269Z,2.70
2022-08-03T17:43:02.159Z,2.90
2022-08-03T17:45:52.996Z,3.05
2022-08-03T17:48:25.099Z,3.75
2022-08-03T17:51:01.893Z,2.70
2022-08-03T17:53:36.558Z,2.58
2022-08-03T17:56:45.735Z,2.60
2022-08-03T17:59:16.811Z,3.72
2022-08-03T18:02:34.119Z,3.40
2022-08-03T18:05:16.277Z,4.22
2022-08-03T18:08:00.855Z,4.75
2022-08-03T18:10:36.569Z,4.45
2022-08-03T18:13:24.291Z,4.30
2022-08-03T18:15:56.341Z,4.03
2022-08-03T18:18:32.969Z,4.32
2022-08-03T18:21:06.547Z,3.90
2022-08-03T18:23:39.210Z,3.67
2022-08-03T18:26:12.232Z,3.67
2022-08-03T18:28:42.097Z,5.35
2022-08-03T18:31:12.772Z,5.97
2022-08-03T18:34:19.087Z,4.53
2022-08-03T18:36:54.857Z,5.45
2022-08-03T18:39:25.117Z,4.00
2022-08-03T18:41:55.493Z,4.55
2022-08-03T18:44:46.540Z,3.30
2022-08-03T18:47:51.705Z,2.70
2022-08-03T18:50:30.690Z,2.80
2022-08-03T18:53:15.508Z,2.95
2022-08-03T18:56:07.013Z,3.60
2022-08-03T18:58:52.263Z,2.97
2022-08-03T19:02:00.827Z,3.00
2022-08-03T19:04:28.220Z,3.15
2022-08-03T19:07:03.659Z,2.95
2022-08-03T19:09:46.840Z,3.30
2022-08-03T19:12:30.940Z,3.15
2022-08-03T19:15:10.371Z,2.92
2022-08-03T19:17:50.112Z,2.90
2022-08-03T19:20:32.597Z,3.05
2022-08-03T19:23:01.980Z,3.13
2022-08-03T19:25:34.742Z,3.53
2022-08-03T19:28:06.147Z,2.70
2022-08-03T19:30:39.098Z,3.05
2022-08-03T19:33:09.977Z,3.40
2022-08-03T19:35:54.748Z,3.88
2022-08-03T19:41:18.871Z,3.17
2022-08-03T19:43:57.690Z,3.10
2022-08-03T19:46:30.179Z,3.00
2022-08-03T19:49:10.633Z,3.30
2022-08-03T19:52:01.743Z,3.80
2022-08-03T19:54:45.629Z,3.33
2022-08-03T19:57:24.974Z,4.20
2022-08-03T19:59:55.557Z,4.03
2022-08-03T20:02:29.652Z,3.85
2022-08-03T20:04:59.917Z,3.33
2022-08-03T20:07:30.754Z,3.78
2022-08-03T20:10:01.697Z,4.30
2022-08-03T20:12:38.605Z,3.75
2022-08-03T20:15:09.233Z,4.60
2022-08-03T20:17:54.498Z,3.88
2022-08-03T20:20:27.676Z,4.20
2022-08-03T20:22:58.756Z,4.00
2022-08-03T20:25:38.643Z,4.28
2022-08-03T20:28:14.045Z,4.50
2022-08-03T20:33:18.554Z,4.57
2022-08-03T20:35:49.905Z,4.22
2022-08-03T20:38:19.752Z,4.35
2022-08-03T20:40:56.361Z,5.28
2022-08-03T20:43:28.357Z,5.03
2022-08-03T20:46:01.045Z,4.95
2022-08-03T20:48:49.341Z,5.18
2022-08-03T20:54:22.578Z,5.00
2022-08-03T20:56:58.584Z,4.40
2022-08-03T20:59:35.074Z,4.68
2022-08-03T21:02:19.685Z,4.68
2022-08-03T21:05:03.672Z,4.47
2022-08-03T21:07:45.726Z,4.60
2022-08-03T21:10:32.524Z,4.63
2022-08-03T21:13:07.585Z,4.97
2022-08-03T21:13:10.336Z,3.20
2022-08-03T21:13:16.236Z,4.53
2022-08-03T21:16:12.688Z,4.78
2022-08-03T21:18:43.984Z,4.30
2022-08-03T21:21:16.698Z,4.53
2022-08-03T21:23:49.829Z,4.80
2022-08-03T21:26:20.318Z,4.57
2022-08-03T21:28:50.718Z,4.47
2022-08-03T21:31:25.751Z,3.97
2022-08-03T21:33:57.621Z,4.40
2022-08-03T21:36:30.684Z,4.50
2022-08-03T21:39:00.732Z,4.40
2022-08-03T21:41:32.478Z,3.90
2022-08-03T21:44:02.937Z,4.10
2022-08-03T21:46:38.986Z,4.38
2022-08-03T21:50:05.078Z,4.10
2022-08-03T21:52:03.979Z,5.25
2022-08-03T21:54:36.115Z,4.28
2022-08-03T21:57:07.624Z,4.10
2022-08-03T21:59:39.088Z,3.88
2022-08-03T22:02:11.471Z,4.53
2022-08-03T22:04:56.253Z,4.13
2022-08-03T22:07:29.025Z,3.97
2022-08-03T22:09:59.591Z,4.20
2022-08-03T22:12:30.960Z,3.65
2022-08-03T22:15:02.330Z,4.15
2022-08-03T22:17:56.030Z,3.80
2022-08-03T22:20:24.294Z,3.95
2022-08-03T22:23:01.094Z,4.10
2022-08-03T22:25:32.202Z,3.80
2022-08-03T22:28:03.839Z,4.00
2022-08-03T22:30:33.327Z,3.85
2022-08-03T22:33:04.495Z,3.38
2022-08-03T22:35:47.133Z,3.60
2022-08-03T22:38:18.475Z,3.80
2022-08-03T22:40:51.086Z,3.92
2022-08-03T22:43:23.867Z,3.83
2022-08-03T22:46:10.405Z,3.65
2022-08-03T22:48:41.990Z,3.75
2022-08-03T22:51:11.765Z,4.45
2022-08-03T22:53:42.346Z,3.40
2022-08-03T22:56:11.438Z,3.95
2022-08-03T22:58:40.375Z,4.00
2022-08-03T23:01:11.601Z,3.50
2022-08-03T23:03:58.645Z,3.60
2022-08-03T23:06:34.980Z,3.67
2022-08-03T23:09:08.576Z,3.58
2022-08-03T23:11:45.180Z,3.72
2022-08-03T23:14:16.203Z,3.47
2022-08-03T23:16:46.916Z,3.30
2022-08-03T23:19:25.418Z,4.20
2022-08-03T23:22:02.251Z,3.70
2022-08-03T23:24:37.066Z,3.80
2022-08-03T23:27:07.377Z,3.92
2022-08-03T23:29:37.527Z,4.50
2022-08-03T23:32:07.902Z,3.97
2022-08-03T23:34:58.082Z,4.05
2022-08-03T23:37:27.494Z,4.18
2022-08-03T23:39:58.998Z,3.63
2022-08-03T23:42:28.696Z,4.20
2022-08-03T23:44:59.480Z,3.55
2022-08-03T23:47:47.475Z,4.22
2022-08-03T23:50:16.842Z,4.22
2022-08-03T23:52:56.925Z,3.97
2022-08-03T23:55:46.543Z,3.55
2022-08-03T23:58:32.513Z,4.20
